Prevelis — SYDL — position and weather

sailwx.info

Track history (hours):
 
Tides and Currents Weather Stations Pressure Air Temp Water Temp Dewpoint Dewpoint Depression Visibility Wind Speed Wind Dir Waves Ship Positions

Prevelis

Last reported at 2018-Feb-23 17:30 UTC. Time now 2018-Feb-25 00:22 UTC.
Position N 37°37' E 023°45'.

Length 143 m; draft 5.4 m.

Type: Passenger vessel. MMSI: 239297000.

Date/timePositionNaut miles runAvg speedWind from/ knotsBaromVisibWave heightAir tempDewpointWater temp
2018-Feb-23 17:30N 37°37' E 023°45'917.4
2018-Feb-23 17:00N 37°45' E 023°40'816.8
2018-Feb-23 16:30N 37°53' E 023°37'4 9.0
2018-Feb-23 16:00N 37°57' E 023°38'0 0.0
2018-Feb-23 15:30N 37°57' E 023°38'0 0.0
2018-Feb-23 15:00N 37°57' E 023°38'0 0.0
2018-Feb-23 14:30N 37°57' E 023°38'0 0.0
2018-Feb-23 14:00N 37°57' E 023°38'0 0.0
2018-Feb-23 13:30N 37°57' E 023°38'0 0.0
2018-Feb-23 13:00N 37°57' E 023°38'0 0.0
2018-Feb-23 12:30N 37°57' E 023°38'0 0.0
2018-Feb-23 12:00N 37°57' E 023°38'0 0.0
2018-Feb-23 11:30N 37°57' E 023°38'0 0.0
2018-Feb-23 11:00N 37°57' E 023°38'0 0.0
2018-Feb-23 10:30N 37°57' E 023°38'0 0.0
2018-Feb-23 09:59N 37°57' E 023°38'0 0.0
2018-Feb-23 09:30N 37°57' E 023°38'0 0.0
2018-Feb-23 09:00N 37°57' E 023°38'0 0.0
2018-Feb-23 08:30N 37°57' E 023°38'0 0.0
2018-Feb-23 08:00N 37°57' E 023°38'0 0.0
2018-Feb-23 07:30N 37°57' E 023°38'0 0.0
2018-Feb-23 07:00N 37°57' E 023°38'0 0.0
2018-Feb-23 06:30N 37°57' E 023°38'0 0.0
2018-Feb-23 06:00N 37°57' E 023°38'0 0.0
2018-Feb-23 05:30N 37°57' E 023°38'3 6.7
2018-Feb-23 05:00N 37°54' E 023°38'816.9
2018-Feb-23 04:30N 37°46' E 023°42'917.2
2018-Feb-23 04:00N 37°38' E 023°46'  
2018-Feb-20 20:04N 37°39' E 023°43'217.6
2018-Feb-20 19:58N 37°41' E 023°42'817.4
2018-Feb-20 19:30N 37°48' E 023°37'816.3
2018-Feb-20 19:01N 37°56' E 023°37'1 2.7
2018-Feb-20 18:30N 37°57' E 023°38'0 0.0
2018-Feb-20 18:00N 37°57' E 023°38'0 0.0
2018-Feb-20 17:30N 37°57' E 023°38'0 0.0
2018-Feb-20 17:00N 37°57' E 023°38'0 0.0
2018-Feb-20 16:30N 37°57' E 023°38'0 0.0
2018-Feb-20 16:00N 37°57' E 023°38'0 0.0
2018-Feb-20 15:30N 37°57' E 023°38'0 0.0
2018-Feb-20 15:00N 37°57' E 023°38'4 7.8
2018-Feb-20 14:30N 37°53' E 023°38'917.3
2018-Feb-20 14:00N 37°45' E 023°42'917.3
2018-Feb-20 13:30N 37°37' E 023°47'  
2018-Feb-17 02:14N 37°39' E 023°52'417.0
2018-Feb-17 02:01N 37°39' E 023°47'815.6
2018-Feb-17 01:31N 37°45' E 023°40'917.6
2018-Feb-17 01:01N 37°53' E 023°36'4 8.1
2018-Feb-17 00:30N 37°57' E 023°38'0 0.0
2018-Feb-17 00:00N 37°57' E 023°38'0 0.0
2018-Feb-16 23:30N 37°57' E 023°38'0 0.0
2018-Feb-16 23:00N 37°57' E 023°38'1 1.3
2018-Feb-16 22:30N 37°56' E 023°38'714.3
2018-Feb-16 22:00N 37°50' E 023°40'917.3
2018-Feb-16 21:30N 37°42' E 023°45'  
2018-Feb-13 20:21N 37°34' E 023°48'516.0
2018-Feb-13 20:00N 37°38' E 023°43'816.3
2018-Feb-13 19:30N 37°45' E 023°39'816.0
2018-Feb-13 19:00N 37°53' E 023°37'4 7.7
2018-Feb-13 18:30N 37°57' E 023°38'0 0.0
2018-Feb-13 18:00N 37°57' E 023°38'0 0.0
2018-Feb-13 17:30N 37°57' E 023°38'  
Track history (hours):
 
Tides and Currents Weather Stations Pressure Air Temp Water Temp Dewpoint Dewpoint Depression Visibility Wind Speed Wind Dir Waves Ship Positions

Prevelis

Last reported at 2018-Feb-23 17:30 UTC. Time now 2018-Feb-25 00:22 UTC.
Position N 37°37' E 023°45'.

Length 143 m; draft 5.4 m.

Type: Passenger vessel. MMSI: 239297000.

Date/timePositionNaut miles runAvg speedWind from/ knotsBaromVisibWave heightAir tempDewpointWater temp
2018-Feb-23 17:30N 37°37' E 023°45'917.4
2018-Feb-23 17:00N 37°45' E 023°40'816.8
2018-Feb-23 16:30N 37°53' E 023°37'4 9.0
2018-Feb-23 16:00N 37°57' E 023°38'0 0.0
2018-Feb-23 15:30N 37°57' E 023°38'0 0.0
2018-Feb-23 15:00N 37°57' E 023°38'0 0.0
2018-Feb-23 14:30N 37°57' E 023°38'0 0.0
2018-Feb-23 14:00N 37°57' E 023°38'0 0.0
2018-Feb-23 13:30N 37°57' E 023°38'0 0.0
2018-Feb-23 13:00N 37°57' E 023°38'0 0.0
2018-Feb-23 12:30N 37°57' E 023°38'0 0.0
2018-Feb-23 12:00N 37°57' E 023°38'0 0.0
2018-Feb-23 11:30N 37°57' E 023°38'0 0.0
2018-Feb-23 11:00N 37°57' E 023°38'0 0.0
2018-Feb-23 10:30N 37°57' E 023°38'0 0.0
2018-Feb-23 09:59N 37°57' E 023°38'0 0.0
2018-Feb-23 09:30N 37°57' E 023°38'0 0.0
2018-Feb-23 09:00N 37°57' E 023°38'0 0.0
2018-Feb-23 08:30N 37°57' E 023°38'0 0.0
2018-Feb-23 08:00N 37°57' E 023°38'0 0.0
2018-Feb-23 07:30N 37°57' E 023°38'0 0.0
2018-Feb-23 07:00N 37°57' E 023°38'0 0.0
2018-Feb-23 06:30N 37°57' E 023°38'0 0.0
2018-Feb-23 06:00N 37°57' E 023°38'0 0.0
2018-Feb-23 05:30N 37°57' E 023°38'3 6.7
2018-Feb-23 05:00N 37°54' E 023°38'816.9
2018-Feb-23 04:30N 37°46' E 023°42'917.2
2018-Feb-23 04:00N 37°38' E 023°46'  
2018-Feb-20 20:04N 37°39' E 023°43'217.6
2018-Feb-20 19:58N 37°41' E 023°42'817.4
2018-Feb-20 19:30N 37°48' E 023°37'816.3
2018-Feb-20 19:01N 37°56' E 023°37'1 2.7
2018-Feb-20 18:30N 37°57' E 023°38'0 0.0
2018-Feb-20 18:00N 37°57' E 023°38'0 0.0
2018-Feb-20 17:30N 37°57' E 023°38'0 0.0
2018-Feb-20 17:00N 37°57' E 023°38'0 0.0
2018-Feb-20 16:30N 37°57' E 023°38'0 0.0
2018-Feb-20 16:00N 37°57' E 023°38'0 0.0
2018-Feb-20 15:30N 37°57' E 023°38'0 0.0
2018-Feb-20 15:00N 37°57' E 023°38'4 7.8
2018-Feb-20 14:30N 37°53' E 023°38'917.3
2018-Feb-20 14:00N 37°45' E 023°42'917.3
2018-Feb-20 13:30N 37°37' E 023°47'  
2018-Feb-17 02:14N 37°39' E 023°52'417.0
2018-Feb-17 02:01N 37°39' E 023°47'815.6
2018-Feb-17 01:31N 37°45' E 023°40'917.6
2018-Feb-17 01:01N 37°53' E 023°36'4 8.1
2018-Feb-17 00:30N 37°57' E 023°38'0 0.0
2018-Feb-17 00:00N 37°57' E 023°38'0 0.0
2018-Feb-16 23:30N 37°57' E 023°38'0 0.0
2018-Feb-16 23:00N 37°57' E 023°38'1 1.3
2018-Feb-16 22:30N 37°56' E 023°38'714.3
2018-Feb-16 22:00N 37°50' E 023°40'917.3
2018-Feb-16 21:30N 37°42' E 023°45'  
2018-Feb-13 20:21N 37°34' E 023°48'516.0
2018-Feb-13 20:00N 37°38' E 023°43'816.3
2018-Feb-13 19:30N 37°45' E 023°39'816.0
2018-Feb-13 19:00N 37°53' E 023°37'4 7.7
2018-Feb-13 18:30N 37°57' E 023°38'0 0.0
2018-Feb-13 18:00N 37°57' E 023°38'0 0.0
2018-Feb-13 17:30N 37°57' E 023°38'  

Dump ship's entire track history